createdAt,value
2018-04-01T00:00:11.446Z,986.57
2018-04-01T00:01:11.437Z,986.54
2018-04-01T00:02:11.422Z,986.56
2018-04-01T00:03:11.406Z,986.56
2018-04-01T00:04:11.393Z,986.55
2018-04-01T00:05:11.380Z,986.54
2018-04-01T00:06:11.366Z,986.51
2018-04-01T00:07:11.353Z,986.52
2018-04-01T00:08:11.364Z,986.50
2018-04-01T00:09:11.331Z,986.51
2018-04-01T00:10:11.363Z,986.50
2018-04-01T00:11:11.299Z,986.51
2018-04-01T00:12:11.289Z,986.53
2018-04-01T00:13:11.290Z,986.59
2018-04-01T00:14:11.287Z,986.59
2018-04-01T00:15:11.245Z,986.60
2018-04-01T00:16:11.279Z,986.63
2018-04-01T00:17:11.218Z,986.65
2018-04-01T00:18:11.205Z,986.65
2018-04-01T00:19:11.203Z,986.66
2018-04-01T00:20:11.178Z,986.68
2018-04-01T00:21:11.164Z,986.70
2018-04-01T00:22:11.151Z,986.74
2018-04-01T00:23:11.137Z,986.74
2018-04-01T00:24:11.124Z,986.75
2018-04-01T00:25:11.111Z,986.75
2018-04-01T00:26:11.118Z,986.76
2018-04-01T00:27:11.083Z,986.80
2018-04-01T00:28:11.086Z,986.77
2018-04-01T00:29:11.057Z,986.78
2018-04-01T00:30:11.043Z,986.79
2018-04-01T00:31:11.028Z,986.81
2018-04-01T00:32:11.016Z,986.75
2018-04-01T00:33:11.003Z,986.82
2018-04-01T00:34:11.000Z,986.80
2018-04-01T00:35:10.979Z,986.85
2018-04-01T00:36:10.961Z,986.84
2018-04-01T00:37:10.948Z,986.82
2018-04-01T00:38:10.935Z,986.84
2018-04-01T00:39:10.922Z,986.86
2018-04-01T00:40:10.907Z,986.80
2018-04-01T00:41:10.894Z,986.87
2018-04-01T00:42:10.881Z,986.83
2018-04-01T00:43:10.866Z,986.88
2018-04-01T00:44:10.866Z,986.84
2018-04-01T00:45:11.066Z,986.83
2018-04-01T00:46:10.834Z,986.86
2018-04-01T00:47:10.821Z,986.87
2018-04-01T00:48:10.821Z,986.88
2018-04-01T00:49:10.786Z,986.88
2018-04-01T00:50:10.782Z,986.90
2018-04-01T00:51:10.979Z,986.90
2018-04-01T00:52:10.749Z,986.94
2018-04-01T00:53:10.733Z,986.89
2018-04-01T00:54:10.735Z,986.93
2018-04-01T00:55:10.706Z,986.89
2018-04-01T00:56:10.692Z,986.92
2018-04-01T00:57:10.679Z,986.93
2018-04-01T00:58:10.667Z,986.97
2018-04-01T00:59:10.652Z,986.93
2018-04-01T01:00:10.639Z,986.96
2018-04-01T01:01:10.648Z,986.93
2018-04-01T01:02:10.615Z,986.94
2018-04-01T01:03:10.622Z,986.95
2018-04-01T01:04:10.587Z,986.96
2018-04-01T01:05:10.605Z,986.95
2018-04-01T01:06:10.561Z,986.92
2018-04-01T01:07:10.562Z,986.94
2018-04-01T01:08:10.573Z,986.92
2018-04-01T01:09:10.528Z,986.91
2018-04-01T01:10:10.508Z,986.91
2018-04-01T01:11:10.522Z,986.95
2018-04-01T01:12:10.481Z,986.97
2018-04-01T01:13:10.469Z,986.95
2018-04-01T01:14:10.456Z,986.94
2018-04-01T01:15:10.442Z,986.94
2018-04-01T01:16:10.429Z,986.93
2018-04-01T01:17:10.416Z,986.93
2018-04-01T01:18:10.409Z,986.96
2018-04-01T01:19:10.395Z,986.94
2018-04-01T01:20:10.402Z,986.97
2018-04-01T01:21:10.364Z,986.92
2018-04-01T01:22:10.351Z,986.95
2018-04-01T01:23:10.338Z,986.94
2018-04-01T01:24:10.332Z,986.97
2018-04-01T01:25:10.317Z,986.96
2018-04-01T01:26:10.317Z,986.96
2018-04-01T01:27:10.285Z,986.91
2018-04-01T01:28:10.273Z,986.94
2018-04-01T01:29:10.260Z,986.95
2018-04-01T01:30:10.247Z,986.95
2018-04-01T01:31:10.233Z,986.96
2018-04-01T01:32:10.220Z,986.94
2018-04-01T01:33:10.207Z,986.96
2018-04-01T01:34:10.194Z,987.01
2018-04-01T01:35:10.182Z,987.01
2018-04-01T01:36:10.183Z,987.01
2018-04-01T01:37:10.206Z,987.07
2018-04-01T01:38:10.149Z,987.02
2018-04-01T01:39:10.128Z,987.06
2018-04-01T01:40:10.138Z,987.09
2018-04-01T01:41:10.103Z,987.10
2018-04-01T01:42:10.100Z,987.10
2018-04-01T01:43:10.298Z,987.15
2018-04-01T01:44:10.069Z,987.13
2018-04-01T01:45:10.056Z,987.14
2018-04-01T01:46:10.053Z,987.13
2018-04-01T01:47:10.024Z,987.14
2018-04-01T01:48:10.022Z,987.13
2018-04-01T01:49:09.998Z,987.19
2018-04-01T01:50:09.985Z,987.20
2018-04-01T01:51:09.972Z,987.22
2018-04-01T01:52:09.959Z,987.23
2018-04-01T01:53:09.966Z,987.21
2018-04-01T01:54:09.934Z,987.21
2018-04-01T01:55:09.939Z,987.25
2018-04-01T01:56:09.907Z,987.27
2018-04-01T01:57:09.894Z,987.28
2018-04-01T01:58:09.881Z,987.25
2018-04-01T01:59:09.888Z,987.22
2018-04-01T02:00:09.855Z,987.25
2018-04-01T02:01:09.854Z,987.21
2018-04-01T02:02:09.855Z,987.22
2018-04-01T02:03:09.816Z,987.26
2018-04-01T02:04:09.802Z,987.32
2018-04-01T02:05:09.789Z,987.25
2018-04-01T02:06:09.777Z,987.28
2018-04-01T02:07:09.763Z,987.29
2018-04-01T02:08:09.750Z,987.29
2018-04-01T02:09:09.737Z,987.35
2018-04-01T02:10:09.738Z,987.33
2018-04-01T02:11:09.938Z,987.36
2018-04-01T02:12:09.710Z,987.33
2018-04-01T02:13:09.685Z,987.34
2018-04-01T02:14:09.700Z,987.39
2018-04-01T02:15:09.658Z,987.31
2018-04-01T02:16:09.659Z,987.38
2018-04-01T02:17:09.686Z,987.39
2018-04-01T02:18:09.629Z,987.37
2018-04-01T02:19:09.604Z,987.38
2018-04-01T02:20:09.616Z,987.38
2018-04-01T02:21:09.579Z,987.38
2018-04-01T02:22:09.566Z,987.36
2018-04-01T02:23:09.553Z,987.37
2018-04-01T02:24:09.539Z,987.38
2018-04-01T02:25:09.531Z,987.41
2018-04-01T02:26:09.512Z,987.44
2018-04-01T02:27:09.502Z,987.41
2018-04-01T02:28:09.492Z,987.47
2018-04-01T02:29:09.498Z,987.44
2018-04-01T02:30:09.461Z,987.45
2018-04-01T02:31:09.446Z,987.49
2018-04-01T02:32:09.434Z,987.46
2018-04-01T02:33:09.429Z,987.50
2018-04-01T02:34:09.421Z,987.49
2018-04-01T02:35:09.416Z,987.52
2018-04-01T02:36:09.378Z,987.50
2018-04-01T02:37:09.371Z,987.47
2018-04-01T02:38:09.351Z,987.49
2018-04-01T02:39:09.337Z,987.47
2018-04-01T02:40:09.324Z,987.47
2018-04-01T02:41:09.309Z,987.44
2018-04-01T02:42:09.297Z,987.45
2018-04-01T02:43:09.281Z,987.47
2018-04-01T02:44:09.269Z,987.47
2018-04-01T02:45:09.274Z,987.45
2018-04-01T02:46:09.263Z,987.42
2018-04-01T02:47:09.246Z,987.43
2018-04-01T02:48:09.220Z,987.44
2018-04-01T02:49:09.241Z,987.47
2018-04-01T02:50:09.189Z,987.45
2018-04-01T02:51:09.175Z,987.44
2018-04-01T02:52:09.167Z,987.44
2018-04-01T02:53:09.161Z,987.40
2018-04-01T02:54:09.134Z,987.43
2018-04-01T02:55:09.151Z,987.44
2018-04-01T02:56:09.109Z,987.40
2018-04-01T02:57:09.095Z,987.42
2018-04-01T02:58:09.082Z,987.40
2018-04-01T02:59:09.068Z,987.39
2018-04-01T03:00:09.054Z,987.41
2018-04-01T03:01:09.041Z,987.41
2018-04-01T03:02:09.028Z,987.42
2018-04-01T03:03:09.019Z,987.38
2018-04-01T03:04:09.018Z,987.38
2018-04-01T03:05:08.989Z,987.38
2018-04-01T03:06:08.986Z,987.43
2018-04-01T03:07:08.961Z,987.36
2018-04-01T03:08:08.947Z,987.36
2018-04-01T03:09:08.935Z,987.38
2018-04-01T03:10:08.931Z,987.38
2018-04-01T03:11:08.914Z,987.39
2018-04-01T03:12:08.901Z,987.37
2018-04-01T03:13:08.881Z,987.38
2018-04-01T03:14:08.868Z,987.37
2018-04-01T03:15:08.855Z,987.37
2018-04-01T03:16:08.841Z,987.37
2018-04-01T03:17:08.828Z,987.38
2018-04-01T03:18:08.815Z,987.40
2018-04-01T03:19:08.801Z,987.37
2018-04-01T03:20:08.788Z,987.38
2018-04-01T03:21:08.798Z,987.33
2018-04-01T03:22:08.768Z,987.34
2018-04-01T03:23:08.796Z,987.37
2018-04-01T03:24:08.735Z,987.38
2018-04-01T03:25:08.722Z,987.40
2018-04-01T03:26:08.723Z,987.42
2018-04-01T03:27:08.722Z,987.41
2018-04-01T03:28:08.682Z,987.43
2018-04-01T03:29:08.710Z,987.39
2018-04-01T03:30:08.657Z,987.40
2018-04-01T03:31:08.647Z,987.38
2018-04-01T03:32:08.636Z,987.40
2018-04-01T03:33:08.620Z,987.38
2018-04-01T03:34:08.603Z,987.37
2018-04-01T03:35:08.589Z,987.41
2018-04-01T03:36:08.576Z,987.36
2018-04-01T03:37:08.564Z,987.36
2018-04-01T03:38:08.569Z,987.34
2018-04-01T03:39:08.555Z,987.36
2018-04-01T03:40:08.525Z,987.36
2018-04-01T03:41:08.521Z,987.38
2018-04-01T03:42:08.504Z,987.37
2018-04-01T03:43:08.486Z,987.34
2018-04-01T03:44:08.470Z,987.38
2018-04-01T03:45:08.469Z,987.37
2018-04-01T03:46:08.444Z,987.35
2018-04-01T03:47:08.437Z,987.38
2018-04-01T03:48:08.419Z,987.40
2018-04-01T03:49:08.405Z,987.38
2018-04-01T03:50:08.394Z,987.45
2018-04-01T03:51:08.377Z,987.44
2018-04-01T03:52:08.365Z,987.43
2018-04-01T03:53:08.352Z,987.47
2018-04-01T03:54:08.340Z,987.46
2018-04-01T03:55:08.326Z,987.42
2018-04-01T03:56:08.338Z,987.40
2018-04-01T03:57:08.308Z,987.43
2018-04-01T03:58:08.331Z,987.42
2018-04-01T03:59:08.271Z,987.44
2018-04-01T04:00:08.258Z,987.44
2018-04-01T04:01:08.258Z,987.46
2018-04-01T04:02:08.264Z,987.42
2018-04-01T04:03:08.222Z,987.47
2018-04-01T04:04:08.205Z,987.47
2018-04-01T04:05:08.196Z,987.46
2018-04-01T04:06:08.179Z,987.47
2018-04-01T04:07:08.165Z,987.48
2018-04-01T04:08:08.151Z,987.45
2018-04-01T04:09:08.138Z,987.44
2018-04-01T04:10:08.124Z,987.42
2018-04-01T04:11:08.109Z,987.46
2018-04-01T04:12:08.096Z,987.47
2018-04-01T04:13:08.083Z,987.51
2018-04-01T04:14:08.094Z,987.51
2018-04-01T04:15:08.059Z,987.47
2018-04-01T04:16:08.257Z,987.50
2018-04-01T04:17:08.028Z,987.51
2018-04-01T04:18:08.015Z,987.45
2018-04-01T04:19:08.013Z,987.50
2018-04-01T04:20:08.016Z,987.55
2018-04-01T04:21:07.974Z,987.55
2018-04-01T04:22:08.002Z,987.56
2018-04-01T04:23:07.946Z,987.58
2018-04-01T04:24:07.933Z,987.58
2018-04-01T04:25:07.943Z,987.62
2018-04-01T04:26:07.907Z,987.60
2018-04-01T04:27:07.893Z,987.62
2018-04-01T04:28:07.879Z,987.60
2018-04-01T04:29:07.866Z,987.62
2018-04-01T04:30:07.853Z,987.62
2018-04-01T04:31:07.839Z,987.66
2018-04-01T04:32:07.847Z,987.63
2018-04-01T04:33:07.816Z,987.64
2018-04-01T04:34:07.818Z,987.62
2018-04-01T04:35:07.787Z,987.66
2018-04-01T04:36:07.775Z,987.64
2018-04-01T04:37:07.809Z,987.61
2018-04-01T04:38:07.764Z,987.66
2018-04-01T04:39:07.731Z,987.68
2018-04-01T04:40:07.736Z,987.65
2018-04-01T04:41:07.705Z,987.71
2018-04-01T04:42:07.692Z,987.73
2018-04-01T04:43:07.677Z,987.72
2018-04-01T04:44:07.664Z,987.75
2018-04-01T04:45:07.651Z,987.74
2018-04-01T04:46:07.638Z,987.77
2018-04-01T04:47:07.624Z,987.77
2018-04-01T04:48:07.611Z,987.77
2018-04-01T04:49:07.598Z,987.79
2018-04-01T04:50:07.604Z,987.78
2018-04-01T04:51:07.631Z,987.78
2018-04-01T04:52:07.576Z,987.78
2018-04-01T04:53:07.545Z,987.78
2018-04-01T04:54:07.532Z,987.81
2018-04-01T04:55:07.518Z,987.82
2018-04-01T04:56:07.504Z,987.83
2018-04-01T04:57:07.494Z,987.86
2018-04-01T04:58:07.479Z,987.84
2018-04-01T04:59:07.465Z,987.87
2018-04-01T05:00:07.459Z,987.87
2018-04-01T05:01:07.440Z,987.87
2018-04-01T05:02:07.448Z,987.88
2018-04-01T05:03:07.441Z,987.90
2018-04-01T05:04:07.638Z,987.91
2018-04-01T05:05:07.387Z,987.88
2018-04-01T05:06:07.373Z,987.98
2018-04-01T05:07:07.383Z,987.92
2018-04-01T05:08:07.346Z,987.89
2018-04-01T05:09:07.333Z,987.95
2018-04-01T05:10:07.320Z,987.89
2018-04-01T05:11:07.306Z,987.90
2018-04-01T05:12:07.293Z,987.94
2018-04-01T05:13:07.279Z,987.93
2018-04-01T05:14:07.290Z,987.94
2018-04-01T05:15:07.253Z,987.93
2018-04-01T05:16:07.311Z,987.95
2018-04-01T05:17:07.248Z,987.96
2018-04-01T05:18:07.213Z,987.90
2018-04-01T05:19:07.200Z,987.99
2018-04-01T05:20:07.187Z,987.95
2018-04-01T05:21:07.181Z,987.95
2018-04-01T05:22:07.160Z,987.98
2018-04-01T05:23:07.147Z,988.02
2018-04-01T05:24:07.138Z,987.99
2018-04-01T05:25:07.128Z,988.07
2018-04-01T05:26:07.108Z,988.03
2018-04-01T05:27:07.134Z,988.08
2018-04-01T05:28:07.081Z,988.09
2018-04-01T05:29:07.271Z,988.09
2018-04-01T05:30:07.057Z,988.12
2018-04-01T05:31:07.041Z,988.12
2018-04-01T05:32:07.028Z,988.07
2018-04-01T05:33:07.016Z,988.18
2018-04-01T05:34:07.002Z,988.14
2018-04-01T05:35:06.993Z,988.23
2018-04-01T05:36:06.974Z,988.19
2018-04-01T05:37:06.962Z,988.18
2018-04-01T05:38:06.948Z,988.19
2018-04-01T05:39:07.017Z,988.18
2018-04-01T05:40:06.925Z,988.16
2018-04-01T05:41:06.910Z,988.23
2018-04-01T05:42:07.102Z,988.25
2018-04-01T05:43:06.883Z,988.24
2018-04-01T05:44:06.870Z,988.30
2018-04-01T05:45:06.911Z,988.28
2018-04-01T05:46:06.847Z,988.33
2018-04-01T05:47:06.826Z,988.30
2018-04-01T05:48:06.813Z,988.37
2018-04-01T05:49:06.848Z,988.36
2018-04-01T05:50:06.792Z,988.39
2018-04-01T05:51:06.773Z,988.44
2018-04-01T05:52:06.770Z,988.40
2018-04-01T05:53:06.749Z,988.46
2018-04-01T05:54:06.736Z,988.48
2018-04-01T05:55:06.721Z,988.48
2018-04-01T05:56:06.707Z,988.47
2018-04-01T05:57:06.692Z,988.53
2018-04-01T05:58:06.679Z,988.53
2018-04-01T05:59:06.666Z,988.57
2018-04-01T06:00:06.693Z,988.57
2018-04-01T06:01:06.637Z,988.53
2018-04-01T06:02:06.623Z,988.57
2018-04-01T06:03:06.618Z,988.59
2018-04-01T06:04:06.595Z,988.64
2018-04-01T06:05:06.581Z,988.63
2018-04-01T06:07:06.554Z,988.67
2018-04-01T06:08:06.540Z,988.68
2018-04-01T06:09:06.566Z,988.70
2018-04-01T06:10:06.513Z,988.69
2018-04-01T06:11:06.498Z,988.73
2018-04-01T06:12:06.505Z,988.75
2018-04-01T06:13:06.473Z,988.80
2018-04-01T06:14:06.458Z,988.77
2018-04-01T06:15:06.446Z,988.78
2018-04-01T06:16:06.429Z,988.79
2018-04-01T06:17:06.417Z,988.86
2018-04-01T06:18:06.403Z,988.86
2018-04-01T06:19:06.388Z,988.89
2018-04-01T06:20:06.375Z,988.89
2018-04-01T06:21:06.361Z,988.91
2018-04-01T06:22:06.347Z,988.94
2018-04-01T06:23:06.434Z,988.92
2018-04-01T06:24:06.319Z,988.97
2018-04-01T06:25:06.305Z,988.98
2018-04-01T06:26:06.343Z,989.00
2018-04-01T06:27:06.279Z,989.02
2018-04-01T06:28:06.268Z,989.05
2018-04-01T06:29:06.302Z,989.09
2018-04-01T06:30:06.236Z,989.11
2018-04-01T06:31:06.224Z,989.07
2018-04-01T06:32:06.242Z,989.12
2018-04-01T06:33:06.195Z,989.12
2018-04-01T06:34:06.180Z,989.13
2018-04-01T06:35:06.165Z,989.12
2018-04-01T06:36:06.152Z,989.17
2018-04-01T06:37:06.139Z,989.16
2018-04-01T06:38:06.125Z,989.15
2018-04-01T06:39:06.118Z,989.20
2018-04-01T06:40:06.124Z,989.23
2018-04-01T06:41:06.087Z,989.23
2018-04-01T06:42:06.070Z,989.23
2018-04-01T06:43:06.057Z,989.26
2018-04-01T06:44:06.047Z,989.29
2018-04-01T06:45:06.033Z,989.29
2018-04-01T06:46:06.097Z,989.33
2018-04-01T06:47:06.004Z,989.35
2018-04-01T06:48:05.993Z,989.31
2018-04-01T06:49:06.180Z,989.40
2018-04-01T06:50:05.968Z,989.39
2018-04-01T06:51:05.952Z,989.40
2018-04-01T06:52:05.984Z,989.40
2018-04-01T06:53:05.924Z,989.42
2018-04-01T06:54:05.910Z,989.49
2018-04-01T06:55:05.898Z,989.45
2018-04-01T06:56:05.883Z,989.51
2018-04-01T06:57:05.870Z,989.52
2018-04-01T06:58:05.860Z,989.53
2018-04-01T06:59:05.845Z,989.51
2018-04-01T07:00:05.831Z,989.56
2018-04-01T07:01:05.820Z,989.59
2018-04-01T07:02:05.807Z,989.58
2018-04-01T07:03:05.835Z,989.61
2018-04-01T07:04:05.778Z,989.62
2018-04-01T07:05:05.769Z,989.64
2018-04-01T07:06:05.752Z,989.65
2018-04-01T07:07:05.785Z,989.61
2018-04-01T07:08:05.728Z,989.63
2018-04-01T07:09:05.715Z,989.66
2018-04-01T07:10:05.902Z,989.72
2018-04-01T07:11:05.685Z,989.68
2018-04-01T07:12:05.675Z,989.72
2018-04-01T07:13:05.678Z,989.71
2018-04-01T07:14:05.648Z,989.76
2018-04-01T07:15:05.635Z,989.72
2018-04-01T07:16:05.623Z,989.75
2018-04-01T07:17:05.609Z,989.77
2018-04-01T07:18:05.596Z,989.78
2018-04-01T07:19:05.583Z,989.84
2018-04-01T07:20:05.570Z,989.79
2018-04-01T07:21:05.761Z,989.86
2018-04-01T07:22:05.545Z,989.85
2018-04-01T07:23:05.532Z,989.82
2018-04-01T07:25:05.510Z,989.82
2018-04-01T07:26:05.496Z,989.89
2018-04-01T07:28:05.470Z,989.96
2018-04-01T07:29:05.460Z,989.94
2018-04-01T07:30:05.486Z,989.99
2018-04-01T07:31:05.432Z,989.96
2018-04-01T07:32:05.422Z,990.01
2018-04-01T07:33:05.409Z,989.99
2018-04-01T07:34:05.396Z,989.99
2018-04-01T07:35:05.383Z,990.06
2018-04-01T07:36:05.374Z,990.03
2018-04-01T07:37:05.360Z,990.08
2018-04-01T07:38:05.347Z,990.09
2018-04-01T07:39:05.334Z,990.10
2018-04-01T07:40:05.321Z,990.12
2018-04-01T07:41:05.370Z,990.11
2018-04-01T07:42:05.301Z,990.11
2018-04-01T07:43:05.285Z,990.15
2018-04-01T07:45:05.264Z,990.18
2018-04-01T07:46:05.252Z,990.17
2018-04-01T07:47:05.278Z,990.18
2018-04-01T07:48:05.225Z,990.24
2018-04-01T07:49:05.212Z,990.23
2018-04-01T07:50:05.199Z,990.22
2018-04-01T07:51:05.237Z,990.22
2018-04-01T07:52:05.179Z,990.25
2018-04-01T07:53:05.165Z,990.26
2018-04-01T07:54:05.151Z,990.32
2018-04-01T07:55:05.138Z,990.32
2018-04-01T07:56:05.129Z,990.33
2018-04-01T07:57:05.119Z,990.30
2018-04-01T07:58:05.305Z,990.33
2018-04-01T07:59:05.088Z,990.35
2018-04-01T08:00:05.077Z,990.34
2018-04-01T08:01:05.269Z,990.34
2018-04-01T08:02:05.052Z,990.39
2018-04-01T08:03:05.041Z,990.37
2018-04-01T08:04:05.076Z,990.44
2018-04-01T08:05:05.017Z,990.47
2018-04-01T08:06:05.088Z,990.50
2018-04-01T08:07:05.038Z,990.47
2018-04-01T08:08:05.002Z,990.48
2018-04-01T08:09:05.176Z,990.46
2018-04-01T08:10:04.964Z,990.53
2018-04-01T08:11:04.952Z,990.54
2018-04-01T08:12:04.943Z,990.57
2018-04-01T08:13:04.934Z,990.58
2018-04-01T08:14:04.922Z,990.59
2018-04-01T08:15:04.909Z,990.61
2018-04-01T08:16:04.897Z,990.65
2018-04-01T08:17:04.886Z,990.64
2018-04-01T08:18:04.876Z,990.62
2018-04-01T08:19:04.864Z,990.67
2018-04-01T08:20:05.057Z,990.70
2018-04-01T08:21:04.843Z,990.66
2018-04-01T08:22:04.833Z,990.67
2018-04-01T08:23:04.887Z,990.67
2018-04-01T08:24:04.813Z,990.67
2018-04-01T08:25:04.802Z,990.70
2018-04-01T08:26:04.844Z,990.77
2018-04-01T08:27:04.784Z,990.73
2018-04-01T08:28:04.769Z,990.76
2018-04-01T08:29:04.801Z,990.82
2018-04-01T08:30:04.751Z,990.81
2018-04-01T08:31:04.740Z,990.81
2018-04-01T08:32:04.774Z,990.81
2018-04-01T08:33:04.725Z,990.82
2018-04-01T08:34:04.713Z,990.81
2018-04-01T08:35:04.701Z,990.87
2018-04-01T08:36:04.689Z,990.86
2018-04-01T08:37:04.776Z,990.84
2018-04-01T08:38:04.669Z,990.91
2018-04-01T08:39:04.660Z,990.91
2018-04-01T08:40:04.761Z,990.93
2018-04-01T08:41:04.637Z,990.93
2018-04-01T08:42:04.626Z,990.98
2018-04-01T08:43:04.657Z,991.02
2018-04-01T08:44:04.605Z,991.07
2018-04-01T08:45:04.592Z,991.00
2018-04-01T08:46:04.585Z,990.95
2018-04-01T08:47:04.572Z,991.01
2018-04-01T08:48:04.561Z,991.06
2018-04-01T08:49:04.554Z,991.04
2018-04-01T08:50:04.540Z,991.00
2018-04-01T08:51:04.579Z,991.02
2018-04-01T08:52:04.519Z,991.00
2018-04-01T08:53:04.508Z,990.96
2018-04-01T08:55:04.487Z,991.12
2018-04-01T08:56:04.477Z,991.07
2018-04-01T08:57:04.508Z,991.07
2018-04-01T08:58:04.455Z,991.10
2018-04-01T08:59:04.448Z,991.10
2018-04-01T09:00:04.484Z,991.12
2018-04-01T09:01:04.425Z,991.16
2018-04-01T09:02:04.418Z,991.21
2018-04-01T09:03:04.403Z,991.19
2018-04-01T09:04:04.396Z,991.20
2018-04-01T09:05:04.428Z,991.21
2018-04-01T09:06:04.373Z,991.23
2018-04-01T09:07:04.363Z,991.23
2018-04-01T09:08:04.356Z,991.25
2018-04-01T09:09:04.345Z,991.27
2018-04-01T09:10:04.334Z,991.25
2018-04-01T09:11:04.321Z,991.29
2018-04-01T09:12:04.312Z,991.30
2018-04-01T09:13:04.301Z,991.29
2018-04-01T09:14:04.297Z,991.30
2018-04-01T09:15:04.281Z,991.39
2018-04-01T09:16:04.477Z,991.26
2018-04-01T09:17:04.264Z,991.38
2018-04-01T09:18:04.251Z,991.40
2018-04-01T09:19:04.281Z,991.38
2018-04-01T09:20:04.228Z,991.38
2018-04-01T09:21:04.221Z,991.39
2018-04-01T09:22:04.266Z,991.43
2018-04-01T09:23:04.198Z,991.42
2018-04-01T09:24:04.185Z,991.42
2018-04-01T09:25:04.189Z,991.52
2018-04-01T09:26:04.164Z,991.45
2018-04-01T09:27:04.151Z,991.55
2018-04-01T09:28:04.141Z,991.53
2018-04-01T09:29:04.134Z,991.54
2018-04-01T09:30:04.119Z,991.50
2018-04-01T09:31:04.110Z,991.61
2018-04-01T09:32:04.096Z,991.59
2018-04-01T09:33:04.292Z,991.62
2018-04-01T09:34:04.075Z,991.65
2018-04-01T09:35:04.062Z,991.62
2018-04-01T09:36:04.255Z,991.64
2018-04-01T09:37:04.068Z,991.51
2018-04-01T09:38:04.029Z,991.68
2018-04-01T09:39:04.068Z,991.63
2018-04-01T09:40:04.006Z,991.59
2018-04-01T09:41:03.997Z,991.62
2018-04-01T09:42:04.000Z,991.67
2018-04-01T09:43:03.973Z,991.67
2018-04-01T09:44:03.991Z,991.70
2018-04-01T09:45:03.950Z,991.69
2018-04-01T09:46:03.939Z,991.73
2018-04-01T09:47:03.927Z,991.74
2018-04-01T09:48:03.918Z,991.76
2018-04-01T09:49:03.908Z,991.78
2018-04-01T09:50:03.985Z,991.77
2018-04-01T09:51:03.883Z,991.79
2018-04-01T09:52:03.872Z,991.80
2018-04-01T09:53:04.067Z,991.83
2018-04-01T09:54:03.851Z,991.82
2018-04-01T09:55:03.844Z,991.85
2018-04-01T09:56:03.842Z,991.85
2018-04-01T09:57:03.820Z,991.86
2018-04-01T09:58:03.808Z,991.85
2018-04-01T09:59:03.797Z,991.82
2018-04-01T10:00:03.786Z,991.91
2018-04-01T10:01:03.780Z,991.86
2018-04-01T10:02:03.766Z,991.92
2018-04-01T10:03:03.754Z,991.99
2018-04-01T10:04:03.784Z,991.94
2018-04-01T10:05:03.737Z,991.97
2018-04-01T10:06:03.725Z,991.98
2018-04-01T10:07:03.712Z,992.04
2018-04-01T10:08:03.782Z,992.02
2018-04-01T10:09:03.690Z,992.03
2018-04-01T10:10:03.681Z,992.03
2018-04-01T10:11:03.736Z,992.04
2018-04-01T10:12:03.657Z,992.08
2018-04-01T10:13:03.646Z,992.04
2018-04-01T10:14:03.657Z,992.09
2018-04-01T10:15:03.624Z,992.17
2018-04-01T10:16:03.616Z,992.13
2018-04-01T10:17:03.609Z,992.13
2018-04-01T10:18:03.592Z,992.18
2018-04-01T10:19:03.582Z,992.12
2018-04-01T10:20:03.583Z,992.10
2018-04-01T10:21:03.561Z,992.16
2018-04-01T10:22:03.551Z,992.15
2018-04-01T10:23:03.541Z,992.19
2018-04-01T10:24:03.531Z,992.27
2018-04-01T10:25:03.586Z,992.26
2018-04-01T10:26:03.520Z,992.19
2018-04-01T10:27:03.501Z,992.27
2018-04-01T10:28:03.528Z,992.30
2018-04-01T10:29:03.485Z,992.23
2018-04-01T10:30:03.472Z,992.29
2018-04-01T10:31:03.467Z,992.34
2018-04-01T10:32:03.456Z,992.34
2018-04-01T10:33:03.441Z,992.31
2018-04-01T10:34:03.431Z,992.33
2018-04-01T10:35:03.421Z,992.31
2018-04-01T10:36:03.414Z,992.33
2018-04-01T10:37:03.403Z,992.38
2018-04-01T10:38:03.446Z,992.39
2018-04-01T10:39:03.466Z,992.43
2018-04-01T10:40:03.370Z,992.37
2018-04-01T10:41:03.360Z,992.42
2018-04-01T10:42:03.454Z,992.45
2018-04-01T10:43:03.340Z,992.47
2018-04-01T10:44:03.327Z,992.49
2018-04-01T10:45:03.357Z,992.50
2018-04-01T10:46:03.308Z,992.60
2018-04-01T10:47:03.295Z,992.53
2018-04-01T10:48:03.285Z,992.61
2018-04-01T10:49:03.280Z,992.56
2018-04-01T10:50:03.266Z,992.56
2018-04-01T10:51:03.253Z,992.61
2018-04-01T10:52:03.243Z,992.62
2018-04-01T10:53:03.238Z,992.60
2018-04-01T10:54:03.222Z,992.71
2018-04-01T10:55:03.241Z,992.62
2018-04-01T10:56:03.283Z,992.65
2018-04-01T10:57:03.192Z,992.62
2018-04-01T10:58:03.181Z,992.62
2018-04-01T10:59:03.218Z,992.66
2018-04-01T11:00:03.157Z,992.61
2018-04-01T11:01:03.147Z,992.62
2018-04-01T11:02:03.181Z,992.63
2018-04-01T11:03:03.123Z,992.72
2018-04-01T11:04:03.111Z,992.72
2018-04-01T11:05:03.356Z,992.67
2018-04-01T11:06:03.090Z,992.66
2018-04-01T11:07:03.080Z,992.71
2018-04-01T11:08:03.113Z,992.73
2018-04-01T11:09:03.058Z,992.71
2018-04-01T11:10:03.045Z,992.74
2018-04-01T11:11:03.080Z,992.74
2018-04-01T11:12:03.023Z,992.79
2018-04-01T11:13:03.014Z,992.73
2018-04-01T11:14:03.001Z,992.80
2018-04-01T11:15:02.988Z,992.81
2018-04-01T11:16:02.981Z,992.83
2018-04-01T11:17:02.969Z,992.83
2018-04-01T11:18:02.959Z,992.83
2018-04-01T11:19:02.943Z,992.79
2018-04-01T11:20:02.934Z,992.83
2018-04-01T11:21:02.923Z,992.91
2018-04-01T11:22:02.983Z,992.91
2018-04-01T11:23:02.899Z,992.94
2018-04-01T11:24:02.896Z,992.90
2018-04-01T11:25:02.921Z,992.95
2018-04-01T11:26:02.889Z,992.96
2018-04-01T11:27:02.854Z,992.89
2018-04-01T11:28:02.872Z,992.98
2018-04-01T11:29:02.832Z,992.97
2018-04-01T11:30:02.822Z,992.98
2018-04-01T11:31:02.809Z,992.97
2018-04-01T11:32:02.800Z,992.96
2018-04-01T11:33:02.787Z,992.99
2018-04-01T11:34:02.777Z,993.00
2018-04-01T11:35:02.763Z,993.02
2018-04-01T11:36:02.956Z,993.07
2018-04-01T11:37:02.742Z,993.08
2018-04-01T11:38:02.734Z,993.06
2018-04-01T11:40:02.711Z,993.08
2018-04-01T11:41:02.696Z,993.04
2018-04-01T11:42:02.738Z,993.08
2018-04-01T11:43:02.681Z,993.12
2018-04-01T11:44:02.661Z,993.10
2018-04-01T11:45:02.854Z,993.10
2018-04-01T11:46:02.645Z,993.11
2018-04-01T11:47:02.626Z,993.14
2018-04-01T11:48:02.718Z,993.22
2018-04-01T11:49:02.605Z,993.18
2018-04-01T11:50:02.595Z,993.16
2018-04-01T11:51:02.611Z,993.26
2018-04-01T11:52:02.576Z,993.23
2018-04-01T11:53:02.558Z,993.25
2018-04-01T11:54:02.547Z,993.25
2018-04-01T11:55:02.536Z,993.30
2018-04-01T11:56:02.524Z,993.27
2018-04-01T11:57:02.516Z,993.28
2018-04-01T11:58:02.511Z,993.31
2018-04-01T11:59:02.543Z,993.29
2018-04-01T12:00:02.480Z,993.26
2018-04-01T12:01:02.471Z,993.27
2018-04-01T12:02:02.458Z,993.31
2018-04-01T12:03:02.450Z,993.21
2018-04-01T12:04:02.436Z,993.30
2018-04-01T12:05:02.428Z,993.27
2018-04-01T12:06:02.417Z,993.41
2018-04-01T12:07:02.402Z,993.32
2018-04-01T12:08:02.471Z,993.42
2018-04-01T12:09:02.387Z,993.28
2018-04-01T12:10:02.374Z,993.30
2018-04-01T12:11:02.395Z,993.39
2018-04-01T12:12:02.347Z,993.38
2018-04-01T12:13:02.337Z,993.44
2018-04-01T12:14:02.356Z,993.39
2018-04-01T12:15:02.311Z,993.38
2018-04-01T12:16:02.357Z,993.36
2018-04-01T12:17:02.287Z,993.38
2018-04-01T12:18:02.281Z,993.40
2018-04-01T12:19:02.264Z,993.39
2018-04-01T12:20:02.261Z,993.40
2018-04-01T12:21:02.242Z,993.42
2018-04-01T12:22:02.231Z,993.41
2018-04-01T12:23:02.223Z,993.47
2018-04-01T12:24:02.218Z,993.50
2018-04-01T12:25:02.298Z,993.45
2018-04-01T12:26:02.189Z,993.46
2018-04-01T12:27:02.183Z,993.44
2018-04-01T12:29:02.159Z,993.46
2018-04-01T12:30:02.154Z,993.41
2018-04-01T12:31:02.180Z,993.47
2018-04-01T12:32:02.131Z,993.45
2018-04-01T12:33:02.124Z,993.46
2018-04-01T12:34:02.112Z,993.43
2018-04-01T12:35:02.103Z,993.45